sensor_id;sensor_type;location;lat;lon;timestamp;pressure;altitude;pressure_sealevel;temperature;humidity
75891;BME280;64571;47.512;19.054;2023-04-01T00:02:13;99062.53;;;11.18;74.83
75891;BME280;64571;47.512;19.054;2023-04-01T00:05:15;99048.69;;;11.09;75.76
75891;BME280;64571;47.512;19.054;2023-04-01T00:08:18;99063.69;;;11.17;75.89
75891;BME280;64571;47.512;19.054;2023-04-01T00:11:21;99046.94;;;10.96;76.51
75891;BME280;64571;47.512;19.054;2023-04-01T00:14:23;99047.84;;;10.79;77.52
75891;BME280;64571;47.512;19.054;2023-04-01T00:17:26;99048.87;;;10.57;78.93
75891;BME280;64571;47.512;19.054;2023-04-01T00:20:29;99073.88;;;10.66;79.07
75891;BME280;64571;47.512;19.054;2023-04-01T00:23:32;99054.59;;;10.61;79.48
75891;BME280;64571;47.512;19.054;2023-04-01T00:26:35;99058.88;;;10.58;79.70
75891;BME280;64571;47.512;19.054;2023-04-01T00:29:42;99042.34;;;10.53;78.69
75891;BME280;64571;47.512;19.054;2023-04-01T00:32:44;99038.75;;;10.61;78.21
75891;BME280;64571;47.512;19.054;2023-04-01T00:35:47;99038.56;;;10.67;78.22
75891;BME280;64571;47.512;19.054;2023-04-01T00:38:50;99041.31;;;10.75;78.18
75891;BME280;64571;47.512;19.054;2023-04-01T00:41:54;99034.75;;;10.80;77.96
75891;BME280;64571;47.512;19.054;2023-04-01T00:44:56;99043.06;;;10.88;77.07
75891;BME280;64571;47.512;19.054;2023-04-01T00:48:03;99046.13;;;10.96;76.54
75891;BME280;64571;47.512;19.054;2023-04-01T00:54:10;99041.34;;;11.05;76.33
75891;BME280;64571;47.512;19.054;2023-04-01T00:57:33;99044.78;;;11.02;76.55
75891;BME280;64571;47.512;19.054;2023-04-01T01:00:38;99029.94;;;10.98;76.64
75891;BME280;64571;47.512;19.054;2023-04-01T01:03:41;99043.13;;;11.09;76.60
75891;BME280;64571;47.512;19.054;2023-04-01T01:10:21;99023.50;;;11.06;74.74
75891;BME280;64571;47.512;19.054;2023-04-01T01:13:47;99041.56;;;11.21;74.61
75891;BME280;64571;47.512;19.054;2023-04-01T01:16:58;99022.50;;;11.10;74.79
75891;BME280;64571;47.512;19.054;2023-04-01T01:36:37;99016.53;;;11.00;74.32
75891;BME280;64571;47.512;19.054;2023-04-01T01:39:47;99033.78;;;11.14;73.58
75891;BME280;64571;47.512;19.054;2023-04-01T01:42:54;99028.06;;;11.10;73.66
75891;BME280;64571;47.512;19.054;2023-04-01T01:46:01;99027.72;;;11.12;74.12
75891;BME280;64571;47.512;19.054;2023-04-01T01:49:07;99032.34;;;11.08;73.97
75891;BME280;64571;47.512;19.054;2023-04-01T01:52:13;99016.38;;;10.96;73.44
75891;BME280;64571;47.512;19.054;2023-04-01T01:55:31;99027.25;;;11.10;73.83
75891;BME280;64571;47.512;19.054;2023-04-01T02:01:46;99031.00;;;11.14;72.65
75891;BME280;64571;47.512;19.054;2023-04-01T02:04:52;99030.66;;;11.15;72.59
75891;BME280;64571;47.512;19.054;2023-04-01T02:08:01;99029.84;;;11.15;72.57
75891;BME280;64571;47.512;19.054;2023-04-01T02:11:08;99011.22;;;11.07;72.42
75891;BME280;64571;47.512;19.054;2023-04-01T02:14:25;99027.22;;;11.19;71.94
75891;BME280;64571;47.512;19.054;2023-04-01T02:17:30;99006.38;;;11.04;72.14
75891;BME280;64571;47.512;19.054;2023-04-01T02:20:34;99026.06;;;11.20;72.18
75891;BME280;64571;47.512;19.054;2023-04-01T02:23:40;99025.91;;;11.16;72.23
75891;BME280;64571;47.512;19.054;2023-04-01T02:26:44;99023.13;;;11.16;71.83
75891;BME280;64571;47.512;19.054;2023-04-01T02:29:48;99002.28;;;11.01;72.08
75891;BME280;64571;47.512;19.054;2023-04-01T02:32:50;99018.72;;;11.15;72.26
75891;BME280;64571;47.512;19.054;2023-04-01T02:35:53;99011.72;;;11.09;72.63
75891;BME280;64571;47.512;19.054;2023-04-01T02:38:57;99016.47;;;11.08;72.62
75891;BME280;64571;47.512;19.054;2023-04-01T02:42:04;98999.69;;;10.96;72.86
75891;BME280;64571;47.512;19.054;2023-04-01T02:45:08;99009.47;;;11.02;73.04
75891;BME280;64571;47.512;19.054;2023-04-01T02:48:11;99002.81;;;10.95;73.15
75891;BME280;64571;47.512;19.054;2023-04-01T02:51:15;99004.25;;;11.01;73.22
75891;BME280;64571;47.512;19.054;2023-04-01T02:54:19;99010.47;;;10.98;73.26
75891;BME280;64571;47.512;19.054;2023-04-01T02:57:23;99006.62;;;10.81;73.11
75891;BME280;64571;47.512;19.054;2023-04-01T03:00:26;99018.53;;;10.90;73.16
75891;BME280;64571;47.512;19.054;2023-04-01T03:03:28;99017.72;;;10.90;73.11
75891;BME280;64571;47.512;19.054;2023-04-01T03:06:31;98999.62;;;10.75;73.06
75891;BME280;64571;47.512;19.054;2023-04-01T03:09:34;99000.31;;;10.72;72.95
75891;BME280;64571;47.512;19.054;2023-04-01T03:12:36;98998.19;;;10.69;73.22
75891;BME280;64571;47.512;19.054;2023-04-01T03:15:39;99001.47;;;10.62;73.48
75891;BME280;64571;47.512;19.054;2023-04-01T03:18:42;98997.22;;;10.65;73.76
75891;BME280;64571;47.512;19.054;2023-04-01T03:21:46;98998.81;;;10.75;73.99
75891;BME280;64571;47.512;19.054;2023-04-01T03:24:48;98995.75;;;10.68;73.53
75891;BME280;64571;47.512;19.054;2023-04-01T03:27:51;98995.41;;;10.69;73.93
75891;BME280;64571;47.512;19.054;2023-04-01T03:30:53;98984.34;;;10.60;74.08
75891;BME280;64571;47.512;19.054;2023-04-01T03:33:56;99001.81;;;10.61;74.08
75891;BME280;64571;47.512;19.054;2023-04-01T03:36:59;99009.34;;;10.60;74.09
75891;BME280;64571;47.512;19.054;2023-04-01T03:40:01;99016.22;;;10.54;74.41
75891;BME280;64571;47.512;19.054;2023-04-01T03:43:04;99015.41;;;10.54;74.44
75891;BME280;64571;47.512;19.054;2023-04-01T03:46:11;99022.59;;;10.55;74.52
75891;BME280;64571;47.512;19.054;2023-04-01T03:49:13;99027.34;;;10.54;74.03
75891;BME280;64571;47.512;19.054;2023-04-01T03:52:16;99033.72;;;10.55;74.06
75891;BME280;64571;47.512;19.054;2023-04-01T03:55:19;99021.62;;;10.51;74.05
75891;BME280;64571;47.512;19.054;2023-04-01T03:58:22;99034.03;;;10.53;74.02
75891;BME280;64571;47.512;19.054;2023-04-01T04:01:25;99016.44;;;10.41;74.15
75891;BME280;64571;47.512;19.054;2023-04-01T04:04:29;99020.34;;;10.39;74.33
75891;BME280;64571;47.512;19.054;2023-04-01T04:07:34;99045.66;;;10.47;74.39
75891;BME280;64571;47.512;19.054;2023-04-01T04:10:37;99041.91;;;10.43;74.60
75891;BME280;64571;47.512;19.054;2023-04-01T04:13:41;99015.16;;;10.29;74.40
75891;BME280;64571;47.512;19.054;2023-04-01T04:16:44;99036.69;;;10.41;74.45
75891;BME280;64571;47.512;19.054;2023-04-01T04:19:46;99012.88;;;10.31;74.64
75891;BME280;64571;47.512;19.054;2023-04-01T04:22:49;99037.00;;;10.39;74.36
75891;BME280;64571;47.512;19.054;2023-04-01T04:25:57;99043.88;;;10.33;74.48
75891;BME280;64571;47.512;19.054;2023-04-01T04:29:00;99043.66;;;10.64;76.08
75891;BME280;64571;47.512;19.054;2023-04-01T04:32:03;99039.31;;;10.37;74.06
75891;BME280;64571;47.512;19.054;2023-04-01T04:35:06;99043.41;;;10.31;74.05
75891;BME280;64571;47.512;19.054;2023-04-01T04:38:09;99018.72;;;10.21;74.11
75891;BME280;64571;47.512;19.054;2023-04-01T04:41:13;99019.41;;;10.18;74.15
75891;BME280;64571;47.512;19.054;2023-04-01T04:44:17;99015.47;;;10.19;74.12
75891;BME280;64571;47.512;19.054;2023-04-01T04:47:20;99030.63;;;10.22;73.98
75891;BME280;64571;47.512;19.054;2023-04-01T04:50:23;99022.31;;;10.13;74.11
75891;BME280;64571;47.512;19.054;2023-04-01T04:53:26;99014.66;;;10.19;74.30
75891;BME280;64571;47.512;19.054;2023-04-01T04:56:29;99017.09;;;10.20;73.81
75891;BME280;64571;47.512;19.054;2023-04-01T04:59:34;99028.56;;;10.27;73.21
75891;BME280;64571;47.512;19.054;2023-04-01T05:02:37;99017.91;;;10.21;73.13
75891;BME280;64571;47.512;19.054;2023-04-01T05:05:40;99026.41;;;10.33;73.16
75891;BME280;64571;47.512;19.054;2023-04-01T05:08:50;99021.03;;;10.28;72.83
75891;BME280;64571;47.512;19.054;2023-04-01T05:11:52;99017.44;;;10.27;71.99
75891;BME280;64571;47.512;19.054;2023-04-01T05:14:55;99034.56;;;10.38;71.81
75891;BME280;64571;47.512;19.054;2023-04-01T05:17:58;99037.66;;;10.45;71.34
75891;BME280;64571;47.512;19.054;2023-04-01T05:21:00;99041.88;;;10.51;70.97
75891;BME280;64571;47.512;19.054;2023-04-01T05:24:03;99038.94;;;10.56;70.47
75891;BME280;64571;47.512;19.054;2023-04-01T05:27:09;99036.59;;;10.67;70.46
75891;BME280;64571;47.512;19.054;2023-04-01T05:30:12;99026.34;;;10.59;69.51
75891;BME280;64571;47.512;19.054;2023-04-01T05:33:15;99048.50;;;10.76;69.22
75891;BME280;64571;47.512;19.054;2023-04-01T05:36:17;99028.75;;;10.69;68.73
75891;BME280;64571;47.512;19.054;2023-04-01T05:39:20;99049.41;;;10.89;68.10
75891;BME280;64571;47.512;19.054;2023-04-01T05:42:22;99041.03;;;10.98;67.66
75891;BME280;64571;47.512;19.054;2023-04-01T05:45:25;99048.53;;;11.06;67.46
75891;BME280;64571;47.512;19.054;2023-04-01T05:48:33;99041.63;;;11.12;67.10
75891;BME280;64571;47.512;19.054;2023-04-01T05:51:36;99054.34;;;11.22;66.54
75891;BME280;64571;47.512;19.054;2023-04-01T05:54:39;99037.62;;;11.30;66.11
75891;BME280;64571;47.512;19.054;2023-04-01T05:57:42;99043.84;;;11.48;65.72
75891;BME280;64571;47.512;19.054;2023-04-01T06:00:44;99040.91;;;11.53;65.07
75891;BME280;64571;47.512;19.054;2023-04-01T06:03:51;99023.50;;;11.56;64.83
75891;BME280;64571;47.512;19.054;2023-04-01T06:06:53;99049.88;;;11.80;64.02
75891;BME280;64571;47.512;19.054;2023-04-01T06:09:56;99043.72;;;11.95;63.62
75891;BME280;64571;47.512;19.054;2023-04-01T06:13:29;99041.47;;;11.88;63.48
75891;BME280;64571;47.512;19.054;2023-04-01T06:30:11;99039.63;;;12.13;62.90
75891;BME280;64571;47.512;19.054;2023-04-01T06:50:30;99056.87;;;12.40;61.49
75891;BME280;64571;47.512;19.054;2023-04-01T06:57:38;99069.28;;;12.30;61.40
75891;BME280;64571;47.512;19.054;2023-04-01T07:00:44;99056.53;;;12.41;60.91
75891;BME280;64571;47.512;19.054;2023-04-01T07:04:23;99066.28;;;12.35;61.11
75891;BME280;64571;47.512;19.054;2023-04-01T07:07:43;99068.25;;;12.35;61.51
75891;BME280;64571;47.512;19.054;2023-04-01T07:11:06;99059.81;;;12.56;60.86
75891;BME280;64571;47.512;19.054;2023-04-01T07:14:25;99044.44;;;12.25;61.21
75891;BME280;64571;47.512;19.054;2023-04-01T07:17:33;99070.50;;;12.54;60.65
75891;BME280;64571;47.512;19.054;2023-04-01T07:20:38;99062.44;;;12.85;60.29
75891;BME280;64571;47.512;19.054;2023-04-01T07:23:44;99050.28;;;13.02;60.06
75891;BME280;64571;47.512;19.054;2023-04-01T07:26:54;99062.34;;;13.18;59.56
75891;BME280;64571;47.512;19.054;2023-04-01T07:29:58;99061.94;;;13.29;59.10
75891;BME280;64571;47.512;19.054;2023-04-01T07:33:22;99055.59;;;12.95;59.34
75891;BME280;64571;47.512;19.054;2023-04-01T07:36:54;99049.88;;;12.67;59.79
75891;BME280;64571;47.512;19.054;2023-04-01T07:57:24;99080.50;;;13.61;57.37
75891;BME280;64571;47.512;19.054;2023-04-01T08:04:23;99073.63;;;13.59;56.92
75891;BME280;64571;47.512;19.054;2023-04-01T08:14:56;99086.31;;;14.09;56.21
75891;BME280;64571;47.512;19.054;2023-04-01T08:18:19;99080.13;;;14.28;55.72
75891;BME280;64571;47.512;19.054;2023-04-01T08:21:28;99078.03;;;14.25;55.82
75891;BME280;64571;47.512;19.054;2023-04-01T08:24:40;99062.97;;;14.29;55.48
75891;BME280;64571;47.512;19.054;2023-04-01T08:27:57;99076.31;;;14.36;55.16
75891;BME280;64571;47.512;19.054;2023-04-01T08:37:51;99077.81;;;14.46;55.29
75891;BME280;64571;47.512;19.054;2023-04-01T08:41:01;99073.03;;;14.74;54.48
75891;BME280;64571;47.512;19.054;2023-04-01T08:54:37;99056.25;;;14.90;53.14
75891;BME280;64571;47.512;19.054;2023-04-01T09:15:54;99068.97;;;15.03;53.98
75891;BME280;64571;47.512;19.054;2023-04-01T09:22:22;99075.19;;;14.81;54.55
75891;BME280;64571;47.512;19.054;2023-04-01T09:29:00;99064.56;;;14.86;54.67
75891;BME280;64571;47.512;19.054;2023-04-01T09:45:17;99076.91;;;13.61;57.42
75891;BME280;64571;47.512;19.054;2023-04-01T10:26:59;99084.19;;;14.18;56.67
75891;BME280;64571;47.512;19.054;2023-04-01T10:33:36;99094.16;;;14.31;56.76
75891;BME280;64571;47.512;19.054;2023-04-01T10:36:43;99095.66;;;14.41;56.51
75891;BME280;64571;47.512;19.054;2023-04-01T10:40:05;99079.06;;;14.60;56.09
75891;BME280;64571;47.512;19.054;2023-04-01T10:49:48;99091.03;;;14.33;56.34
75891;BME280;64571;47.512;19.054;2023-04-01T10:53:09;99078.53;;;14.71;55.60
75891;BME280;64571;47.512;19.054;2023-04-01T11:00:10;99068.72;;;15.24;53.94
75891;BME280;64571;47.512;19.054;2023-04-01T11:03:40;99078.09;;;15.16;53.67
75891;BME280;64571;47.512;19.054;2023-04-01T11:28:34;99065.91;;;16.30;49.66
75891;BME280;64571;47.512;19.054;2023-04-01T11:39:24;99073.59;;;15.11;52.06
75891;BME280;64571;47.512;19.054;2023-04-01T11:42:46;99068.63;;;14.89;53.40
75891;BME280;64571;47.512;19.054;2023-04-01T11:56:11;99077.00;;;14.17;54.97
75891;BME280;64571;47.512;19.054;2023-04-01T12:06:14;99082.28;;;14.34;53.82
75891;BME280;64571;47.512;19.054;2023-04-01T12:12:58;99084.75;;;14.64;53.02
75891;BME280;64571;47.512;19.054;2023-04-01T12:16:29;99080.44;;;14.82;52.36
75891;BME280;64571;47.512;19.054;2023-04-01T12:23:20;99081.63;;;15.29;51.14
75891;BME280;64571;47.512;19.054;2023-04-01T12:26:47;99077.19;;;15.12;50.84
75891;BME280;64571;47.512;19.054;2023-04-01T12:30:18;99085.50;;;15.24;51.10
75891;BME280;64571;47.512;19.054;2023-04-01T12:39:51;99086.31;;;15.25;51.55
75891;BME280;64571;47.512;19.054;2023-04-01T12:43:23;99082.81;;;15.28;51.43
75891;BME280;64571;47.512;19.054;2023-04-01T13:05:27;99068.34;;;16.12;48.04
75891;BME280;64571;47.512;19.054;2023-04-01T13:15:33;99069.94;;;15.93;48.79
75891;BME280;64571;47.512;19.054;2023-04-01T13:18:56;99068.34;;;16.12;48.17
75891;BME280;64571;47.512;19.054;2023-04-01T13:22:17;99056.16;;;16.43;47.28
75891;BME280;64571;47.512;19.054;2023-04-01T13:25:51;99045.38;;;16.64;46.53
75891;BME280;64571;47.512;19.054;2023-04-01T13:29:40;99064.97;;;16.41;46.57
75891;BME280;64571;47.512;19.054;2023-04-01T13:32:58;99043.28;;;16.19;46.92
75891;BME280;64571;47.512;19.054;2023-04-01T13:40:02;99062.00;;;16.54;46.80
75891;BME280;64571;47.512;19.054;2023-04-01T13:46:41;99077.53;;;16.70;45.91
75891;BME280;64571;47.512;19.054;2023-04-01T13:56:56;99072.72;;;16.48;46.65
75891;BME280;64571;47.512;19.054;2023-04-01T14:23:42;99087.13;;;15.25;49.80
75891;BME280;64571;47.512;19.054;2023-04-01T14:47:54;99078.06;;;15.63;49.58
75891;BME280;64571;47.512;19.054;2023-04-01T14:51:22;99072.75;;;15.42;49.37
75891;BME280;64571;47.512;19.054;2023-04-01T14:54:36;99067.12;;;15.74;48.90
75891;BME280;64571;47.512;19.054;2023-04-01T14:57:39;99068.34;;;15.92;48.32
75891;BME280;64571;47.512;19.054;2023-04-01T15:04:20;99065.53;;;15.92;48.51
75891;BME280;64571;47.512;19.054;2023-04-01T15:10:52;99063.44;;;15.54;49.83
75891;BME280;64571;47.512;19.054;2023-04-01T15:14:18;99055.19;;;15.61;50.63
75891;BME280;64571;47.512;19.054;2023-04-01T15:21:16;99074.16;;;15.84;50.97
75891;BME280;64571;47.512;19.054;2023-04-01T15:24:26;99068.53;;;15.84;50.45
75891;BME280;64571;47.512;19.054;2023-04-01T15:27:51;99077.59;;;15.61;50.67
75891;BME280;64571;47.512;19.054;2023-04-01T15:31:02;99073.38;;;15.52;50.94
75891;BME280;64571;47.512;19.054;2023-04-01T15:37:55;99078.72;;;15.41;49.75
75891;BME280;64571;47.512;19.054;2023-04-01T15:51:07;99088.06;;;15.80;48.11
75891;BME280;64571;47.512;19.054;2023-04-01T16:07:43;99092.44;;;15.78;45.53
75891;BME280;64571;47.512;19.054;2023-04-01T16:14:14;99101.47;;;15.71;44.75
75891;BME280;64571;47.512;19.054;2023-04-01T16:17:35;99101.03;;;15.69;44.65
75891;BME280;64571;47.512;19.054;2023-04-01T16:20:54;99100.75;;;15.58;44.87
75891;BME280;64571;47.512;19.054;2023-04-01T16:24:03;99105.53;;;15.58;45.27
75891;BME280;64571;47.512;19.054;2023-04-01T16:30:35;99117.63;;;15.62;45.46
75891;BME280;64571;47.512;19.054;2023-04-01T16:34:08;99117.47;;;15.55;45.70
75891;BME280;64571;47.512;19.054;2023-04-01T16:37:21;99111.69;;;15.48;45.69
75891;BME280;64571;47.512;19.054;2023-04-01T16:40:58;99118.91;;;15.49;45.55
75891;BME280;64571;47.512;19.054;2023-04-01T16:44:17;99120.00;;;15.44;45.32
75891;BME280;64571;47.512;19.054;2023-04-01T16:47:23;99122.97;;;15.35;45.47
75891;BME280;64571;47.512;19.054;2023-04-01T16:50:55;99113.50;;;15.24;45.71
75891;BME280;64571;47.512;19.054;2023-04-01T16:54:12;99129.59;;;15.27;45.94
75891;BME280;64571;47.512;19.054;2023-04-01T16:57:25;99110.78;;;15.12;46.35
75891;BME280;64571;47.512;19.054;2023-04-01T17:00:37;99128.84;;;15.14;46.63
75891;BME280;64571;47.512;19.054;2023-04-01T17:03:46;99121.59;;;14.98;46.93
75891;BME280;64571;47.512;19.054;2023-04-01T17:20:01;99145.66;;;14.71;48.71
75891;BME280;64571;47.512;19.054;2023-04-01T17:26:37;99155.09;;;14.66;49.32
75891;BME280;64571;47.512;19.054;2023-04-01T17:30:09;99143.03;;;14.50;49.48
75891;BME280;64571;47.512;19.054;2023-04-01T17:43:46;99177.63;;;14.45;50.67
75891;BME280;64571;47.512;19.054;2023-04-01T17:46:57;99175.44;;;14.38;51.03
75891;BME280;64571;47.512;19.054;2023-04-01T17:50:20;99180.81;;;14.31;51.29
75891;BME280;64571;47.512;19.054;2023-04-01T18:04:07;99187.84;;;14.13;51.91
75891;BME280;64571;47.512;19.054;2023-04-01T18:07:19;99199.00;;;14.13;52.14
75891;BME280;64571;47.512;19.054;2023-04-01T18:10:31;99184.16;;;13.97;52.43
75891;BME280;64571;47.512;19.054;2023-04-01T18:17:06;99192.78;;;13.91;52.99
75891;BME280;64571;47.512;19.054;2023-04-01T18:20:37;99207.87;;;14.03;53.04
75891;BME280;64571;47.512;19.054;2023-04-01T18:23:51;99221.63;;;13.96;53.30
75891;BME280;64571;47.512;19.054;2023-04-01T18:30:28;99222.91;;;13.86;53.62
75891;BME280;64571;47.512;19.054;2023-04-01T18:33:44;99223.50;;;13.79;53.97
75891;BME280;64571;47.512;19.054;2023-04-01T18:36:55;99211.94;;;13.68;54.24
75891;BME280;64571;47.512;19.054;2023-04-01T18:40:13;99237.22;;;13.72;54.34
75891;BME280;64571;47.512;19.054;2023-04-01T18:43:34;99231.63;;;13.72;54.43
75891;BME280;64571;47.512;19.054;2023-04-01T18:50:02;99244.88;;;13.63;54.89
75891;BME280;64571;47.512;19.054;2023-04-01T18:56:59;99251.38;;;13.55;55.06
75891;BME280;64571;47.512;19.054;2023-04-01T19:00:40;99252.41;;;13.50;55.25
75891;BME280;64571;47.512;19.054;2023-04-01T19:03:53;99254.25;;;13.46;55.31
75891;BME280;64571;47.512;19.054;2023-04-01T19:07:01;99235.88;;;13.33;55.38
75891;BME280;64571;47.512;19.054;2023-04-01T19:19:56;99255.41;;;13.33;55.97
75891;BME280;64571;47.512;19.054;2023-04-01T19:26:30;99242.38;;;13.25;56.15
75891;BME280;64571;47.512;19.054;2023-04-01T19:40:57;99263.31;;;13.10;56.76
75891;BME280;64571;47.512;19.054;2023-04-01T19:46:44;99268.44;;;13.08;56.98
75891;BME280;64571;47.512;19.054;2023-04-01T19:53:31;99275.56;;;12.97;57.55
75891;BME280;64571;47.512;19.054;2023-04-01T19:56:58;99280.34;;;12.96;57.50
75891;BME280;64571;47.512;19.054;2023-04-01T20:03:30;99279.81;;;12.82;58.00
75891;BME280;64571;47.512;19.054;2023-04-01T20:06:52;99275.94;;;12.74;58.31
75891;BME280;64571;47.512;19.054;2023-04-01T20:16:12;99273.00;;;12.50;59.08
75891;BME280;64571;47.512;19.054;2023-04-01T20:19:35;99279.69;;;12.57;59.07
75891;BME280;64571;47.512;19.054;2023-04-01T20:25:54;99273.62;;;12.55;59.39
75891;BME280;64571;47.512;19.054;2023-04-01T20:42:51;99279.41;;;12.50;59.83
75891;BME280;64571;47.512;19.054;2023-04-01T21:03:38;99308.37;;;12.58;59.94
75891;BME280;64571;47.512;19.054;2023-04-01T21:13:20;99304.12;;;12.52;60.15
75891;BME280;64571;47.512;19.054;2023-04-01T21:40:23;99319.97;;;12.39;59.14
75891;BME280;64571;47.512;19.054;2023-04-01T21:42:51;99327.16;;;12.40;59.00
75891;BME280;64571;47.512;19.054;2023-04-01T21:56:18;99308.47;;;12.11;58.68
75891;BME280;64571;47.512;19.054;2023-04-01T22:06:38;99321.72;;;12.14;59.54
75891;BME280;64571;47.512;19.054;2023-04-01T22:10:10;99311.78;;;12.04;59.40
75891;BME280;64571;47.512;19.054;2023-04-01T22:13:20;99316.16;;;12.14;59.61
75891;BME280;64571;47.512;19.054;2023-04-01T22:16:54;99311.16;;;11.99;59.91
75891;BME280;64571;47.512;19.054;2023-04-01T22:20:27;99336.31;;;12.11;60.17
75891;BME280;64571;47.512;19.054;2023-04-01T22:23:44;99338.16;;;12.07;60.40
75891;BME280;64571;47.512;19.054;2023-04-01T22:26:53;99335.69;;;12.05;60.87
75891;BME280;64571;47.512;19.054;2023-04-01T22:30:11;99339.47;;;12.01;60.86
75891;BME280;64571;47.512;19.054;2023-04-01T22:43:01;99342.62;;;11.82;61.91
75891;BME280;64571;47.512;19.054;2023-04-01T22:49:38;99353.78;;;11.73;62.09
75891;BME280;64571;47.512;19.054;2023-04-01T22:52:52;99364.28;;;11.76;62.48
75891;BME280;64571;47.512;19.054;2023-04-01T22:56:05;99368.37;;;11.70;62.59
75891;BME280;64571;47.512;19.054;2023-04-01T22:59:19;99361.81;;;11.66;62.88
75891;BME280;64571;47.512;19.054;2023-04-01T23:02:34;99362.81;;;11.61;63.12
75891;BME280;64571;47.512;19.054;2023-04-01T23:05:45;99364.66;;;11.49;63.42
75891;BME280;64571;47.512;19.054;2023-04-01T23:12:00;99383.63;;;11.55;63.61
75891;BME280;64571;47.512;19.054;2023-04-01T23:15:12;99381.84;;;11.51;63.83
75891;BME280;64571;47.512;19.054;2023-04-01T23:21:50;99394.78;;;11.47;64.46
75891;BME280;64571;47.512;19.054;2023-04-01T23:28:18;99382.03;;;11.28;64.49
75891;BME280;64571;47.512;19.054;2023-04-01T23:31:32;99403.62;;;11.31;64.77
75891;BME280;64571;47.512;19.054;2023-04-01T23:34:36;99400.84;;;11.31;64.75
75891;BME280;64571;47.512;19.054;2023-04-01T23:37:39;99396.56;;;11.25;64.92
75891;BME280;64571;47.512;19.054;2023-04-01T23:40:42;99377.44;;;11.15;65.10
75891;BME280;64571;47.512;19.054;2023-04-01T23:43:45;99393.47;;;11.18;65.25
75891;BME280;64571;47.512;19.054;2023-04-01T23:46:52;99375.81;;;11.05;65.21
75891;BME280;64571;47.512;19.054;2023-04-01T23:50:01;99396.91;;;11.15;65.11
75891;BME280;64571;47.512;19.054;2023-04-01T23:53:21;99407.56;;;11.13;65.20
75891;BME280;64571;47.512;19.054;2023-04-01T23:56:46;99418.69;;;11.13;65.30
